createdAt,value
2023-05-12T00:00:13.731Z,92.67
2023-05-12T00:01:13.743Z,91.20
2023-05-12T00:02:13.798Z,91.75
2023-05-12T00:03:13.791Z,91.50
2023-05-12T00:04:13.749Z,91.55
2023-05-12T00:05:13.732Z,91.40
2023-05-12T00:06:13.708Z,91.91
2023-05-12T00:07:13.730Z,93.13
2023-05-12T00:08:13.657Z,94.71
2023-05-12T00:09:13.662Z,94.40
2023-05-12T00:10:13.690Z,94.55
2023-05-12T00:11:13.667Z,94.95
2023-05-12T00:12:13.639Z,95.57
2023-05-12T00:13:13.640Z,95.26
2023-05-12T00:14:13.612Z,95.87
2023-05-12T00:15:13.612Z,96.69
2023-05-12T00:16:13.656Z,96.08
2023-05-12T00:17:13.581Z,96.18
2023-05-12T00:18:13.586Z,95.36
2023-05-12T00:19:13.553Z,95.47
2023-05-12T00:20:13.567Z,96.18
2023-05-12T00:21:13.580Z,95.26
2023-05-12T00:22:13.558Z,95.57
2023-05-12T00:23:13.562Z,95.12
2023-05-12T00:24:13.515Z,95.42
2023-05-12T00:25:13.498Z,95.16
2023-05-12T00:26:13.526Z,95.12
2023-05-12T00:27:13.483Z,95.42
2023-05-12T00:28:13.483Z,95.21
2023-05-12T00:29:13.472Z,95.83
2023-05-12T00:30:13.483Z,96.89
2023-05-12T00:31:13.508Z,96.79
2023-05-12T00:32:13.450Z,96.59
2023-05-12T00:33:13.440Z,96.48
2023-05-12T00:34:13.449Z,96.69
2023-05-12T00:35:13.439Z,96.28
2023-05-12T00:36:13.418Z,97.75
2023-05-12T00:37:13.408Z,97.86
2023-05-12T00:38:13.386Z,97.65
2023-05-12T00:39:13.399Z,97.75
2023-05-12T00:40:13.375Z,97.65
2023-05-12T00:41:13.373Z,97.55
2023-05-12T00:42:13.368Z,97.86
2023-05-12T00:43:13.436Z,98.02
2023-05-12T00:44:13.345Z,97.75
2023-05-12T00:45:13.340Z,97.81
2023-05-12T00:46:13.321Z,97.81
2023-05-12T00:47:13.309Z,97.09
2023-05-12T00:48:13.323Z,97.55
2023-05-12T00:49:13.309Z,97.61
2023-05-12T00:50:13.292Z,97.75
2023-05-12T00:51:13.326Z,98.36
2023-05-12T00:52:13.259Z,99.18
2023-05-12T00:53:13.252Z,99.39
2023-05-12T00:54:13.249Z,99.18
2023-05-12T00:55:13.259Z,99.99
2023-05-12T00:56:13.224Z,99.39
2023-05-12T00:57:13.222Z,99.04
2023-05-12T00:58:13.213Z,99.49
2023-05-12T00:59:13.199Z,98.77
2023-05-12T01:00:13.201Z,99.08
2023-05-12T01:01:13.211Z,99.29
2023-05-12T01:02:13.183Z,98.52
2023-05-12T01:03:13.317Z,98.22
2023-05-12T01:04:13.171Z,99.39
2023-05-12T01:05:13.137Z,99.18
2023-05-12T01:06:13.140Z,98.98
2023-05-12T01:07:13.109Z,99.39
2023-05-12T01:08:13.112Z,98.88
2023-05-12T01:09:13.121Z,99.49
2023-05-12T01:10:13.090Z,98.68
2023-05-12T01:11:13.073Z,98.16
2023-05-12T01:12:13.086Z,98.16
2023-05-12T01:13:13.054Z,97.96
2023-05-12T01:14:13.031Z,98.16
2023-05-12T01:15:13.093Z,98.36
2023-05-12T01:16:13.025Z,98.06
2023-05-12T01:17:13.072Z,98.16
2023-05-12T01:18:13.090Z,97.96
2023-05-12T01:19:13.083Z,97.96
2023-05-12T01:20:12.975Z,97.90
2023-05-12T01:21:12.991Z,98.11
2023-05-12T01:22:12.967Z,98.25
2023-05-12T01:23:13.971Z,98.52
2023-05-12T01:24:12.947Z,99.48
2023-05-12T01:25:12.953Z,99.43
2023-05-12T01:26:12.939Z,99.48
2023-05-12T01:27:12.950Z,99.58
2023-05-12T01:28:12.957Z,99.43
2023-05-12T01:29:12.912Z,99.13
2023-05-12T01:30:12.900Z,98.82
2023-05-12T01:31:12.941Z,99.23
2023-05-12T01:32:12.913Z,99.33
2023-05-12T01:33:12.917Z,99.43
2023-05-12T01:34:12.874Z,99.54
2023-05-12T01:35:12.864Z,98.82
2023-05-12T01:36:12.820Z,98.52
2023-05-12T01:37:12.952Z,97.80
2023-05-12T01:38:12.851Z,98.11
2023-05-12T01:39:12.857Z,97.49
2023-05-12T01:40:12.800Z,97.70
2023-05-12T01:41:12.811Z,97.70
2023-05-12T01:42:12.823Z,97.60
2023-05-12T01:43:12.779Z,97.29
2023-05-12T01:44:12.744Z,97.39
2023-05-12T01:45:12.766Z,97.80
2023-05-12T01:46:12.761Z,97.80
2023-05-12T01:47:12.725Z,97.90
2023-05-12T01:48:12.733Z,97.55
2023-05-12T01:49:12.726Z,97.65
2023-05-12T01:50:12.730Z,97.96
2023-05-12T01:51:12.712Z,97.86
2023-05-12T01:52:12.735Z,97.75
2023-05-12T01:53:12.743Z,97.80
2023-05-12T01:54:12.677Z,97.39
2023-05-12T01:55:12.655Z,97.49
2023-05-12T01:56:12.662Z,97.80
2023-05-12T01:57:12.681Z,97.70
2023-05-12T01:58:12.615Z,97.70
2023-05-12T01:59:12.627Z,98.00
2023-05-12T02:00:12.614Z,97.90
2023-05-12T02:01:12.636Z,98.21
2023-05-12T02:02:12.734Z,98.41
2023-05-12T02:03:12.670Z,98.41
2023-05-12T02:04:12.591Z,98.11
2023-05-12T02:05:12.580Z,97.95
2023-05-12T02:06:12.576Z,98.05
2023-05-12T02:07:12.539Z,98.41
2023-05-12T02:08:12.533Z,98.31
2023-05-12T02:09:12.510Z,98.25
2023-05-12T02:10:12.505Z,98.41
2023-05-12T02:11:12.507Z,98.00
2023-05-12T02:12:12.510Z,98.00
2023-05-12T02:13:12.536Z,97.60
2023-05-12T02:14:12.489Z,98.21
2023-05-12T02:15:12.495Z,98.00
2023-05-12T02:16:12.472Z,97.70
2023-05-12T02:17:12.457Z,97.80
2023-05-12T02:18:12.431Z,97.80
2023-05-12T02:19:12.467Z,98.52
2023-05-12T02:20:12.574Z,98.41
2023-05-12T02:21:12.427Z,98.52
2023-05-12T02:22:12.371Z,98.31
2023-05-12T02:23:12.479Z,98.21
2023-05-12T02:24:14.816Z,97.90
2023-05-12T02:25:13.328Z,97.60
2023-05-12T02:26:12.364Z,97.90
2023-05-12T02:27:12.375Z,98.41
2023-05-12T02:28:12.344Z,99.13
2023-05-12T02:29:12.375Z,99.33
2023-05-12T02:30:12.386Z,99.27
2023-05-12T02:31:12.334Z,98.41
2023-05-12T02:32:12.601Z,98.00
2023-05-12T02:33:12.388Z,98.52
2023-05-12T02:34:12.277Z,97.90
2023-05-12T02:35:12.293Z,97.90
2023-05-12T02:36:12.252Z,98.11
2023-05-12T02:37:12.293Z,98.21
2023-05-12T02:38:12.251Z,98.11
2023-05-12T02:39:12.281Z,98.00
2023-05-12T02:40:12.217Z,98.21
2023-05-12T02:41:12.225Z,98.11
2023-05-12T02:42:12.232Z,98.31
2023-05-12T02:43:12.260Z,98.52
2023-05-12T02:44:12.168Z,98.31
2023-05-12T02:45:12.183Z,98.21
2023-05-12T02:46:12.199Z,98.00
2023-05-12T02:47:12.162Z,97.39
2023-05-12T02:48:12.127Z,97.70
2023-05-12T02:49:12.149Z,97.49
2023-05-12T02:50:12.096Z,97.70
2023-05-12T02:51:12.098Z,98.00
2023-05-12T02:52:12.226Z,98.05
2023-05-12T02:53:12.093Z,97.19
2023-05-12T02:54:12.091Z,97.39
2023-05-12T02:55:12.060Z,97.80
2023-05-12T02:56:12.063Z,97.70
2023-05-12T02:57:12.053Z,97.70
2023-05-12T02:58:12.050Z,97.80
2023-05-12T02:59:12.022Z,97.70
2023-05-12T03:00:12.000Z,97.90
2023-05-12T03:01:12.214Z,97.80
2023-05-12T03:02:12.089Z,96.83
2023-05-12T03:03:12.081Z,96.47
2023-05-12T03:04:11.963Z,97.08
2023-05-12T03:05:11.968Z,96.88
2023-05-12T03:06:11.971Z,97.08
2023-05-12T03:07:11.978Z,97.19
2023-05-12T03:08:11.966Z,96.58
2023-05-12T03:09:11.899Z,97.29
2023-05-12T03:10:11.915Z,97.08
2023-05-12T03:11:11.921Z,96.88
2023-05-12T03:12:11.907Z,96.88
2023-05-12T03:13:11.882Z,96.58
2023-05-12T03:14:11.903Z,96.58
2023-05-12T03:15:11.908Z,96.78
2023-05-12T03:16:11.872Z,96.88
2023-05-12T03:17:11.982Z,97.08
2023-05-12T03:18:11.992Z,96.47
2023-05-12T03:19:11.974Z,96.58
2023-05-12T03:20:11.800Z,95.76
2023-05-12T03:21:11.845Z,96.06
2023-05-12T03:22:11.808Z,95.96
2023-05-12T03:23:11.763Z,95.96
2023-05-12T03:24:11.770Z,95.96
2023-05-12T03:25:11.776Z,95.45
2023-05-12T03:26:11.751Z,95.56
2023-05-12T03:27:11.743Z,96.06
2023-05-12T03:28:11.731Z,95.25
2023-05-12T03:29:11.685Z,95.96
2023-05-12T03:30:11.714Z,96.17
2023-05-12T03:31:11.709Z,96.27
2023-05-12T03:32:11.705Z,96.06
2023-05-12T03:33:11.708Z,95.96
2023-05-12T03:34:11.681Z,95.65
2023-05-12T03:35:11.684Z,96.17
2023-05-12T03:36:11.646Z,96.88
2023-05-12T03:37:11.708Z,96.58
2023-05-12T03:38:11.632Z,96.88
2023-05-12T03:39:11.620Z,97.86
2023-05-12T03:40:11.619Z,97.96
2023-05-12T03:41:11.607Z,97.90
2023-05-12T03:42:11.576Z,97.75
2023-05-12T03:43:11.573Z,97.96
2023-05-12T03:44:11.574Z,97.90
2023-05-12T03:45:11.562Z,98.52
2023-05-12T03:46:11.597Z,98.11
2023-05-12T03:47:11.644Z,97.90
2023-05-12T03:48:11.568Z,98.11
2023-05-12T03:49:11.556Z,97.49
2023-05-12T03:50:11.506Z,97.39
2023-05-12T03:51:11.510Z,97.39
2023-05-12T03:52:11.489Z,96.58
2023-05-12T03:53:11.467Z,96.43
2023-05-12T03:54:11.484Z,96.37
2023-05-12T03:55:11.463Z,97.04
2023-05-12T03:56:11.429Z,96.94
2023-05-12T03:57:11.430Z,97.29
2023-05-12T03:58:11.414Z,97.04
2023-05-12T03:59:11.403Z,96.73
2023-05-12T04:00:11.426Z,96.84
2023-05-12T04:01:11.395Z,96.84
2023-05-12T04:02:11.410Z,96.63
2023-05-12T04:03:11.450Z,96.53
2023-05-12T04:04:11.504Z,96.63
2023-05-12T04:05:11.349Z,97.00
2023-05-12T04:06:11.361Z,97.00
2023-05-12T04:07:11.337Z,96.59
2023-05-12T04:08:11.363Z,97.00
2023-05-12T04:09:11.319Z,96.59
2023-05-12T04:10:11.324Z,96.48
2023-05-12T04:11:11.338Z,95.93
2023-05-12T04:12:11.281Z,96.44
2023-05-12T04:13:11.420Z,96.54
2023-05-12T04:14:11.285Z,96.23
2023-05-12T04:15:11.252Z,96.44
2023-05-12T04:16:11.291Z,96.44
2023-05-12T04:17:11.261Z,96.54
2023-05-12T04:18:11.284Z,96.54
2023-05-12T04:19:11.290Z,96.75
2023-05-12T04:20:11.207Z,95.73
2023-05-12T04:21:11.225Z,96.30
2023-05-12T04:22:11.231Z,96.03
2023-05-12T04:23:11.198Z,95.73
2023-05-12T04:24:12.874Z,95.32
2023-05-12T04:25:11.170Z,95.42
2023-05-12T04:26:11.212Z,95.42
2023-05-12T04:27:11.142Z,95.83
2023-05-12T04:28:12.295Z,95.52
2023-05-12T04:29:12.113Z,95.83
2023-05-12T04:30:11.127Z,96.03
2023-05-12T04:31:11.113Z,95.83
2023-05-12T04:32:11.115Z,95.93
2023-05-12T04:33:11.139Z,96.64
2023-05-12T04:34:11.103Z,95.62
2023-05-12T04:35:10.995Z,95.77
2023-05-12T04:36:11.026Z,96.54
2023-05-12T04:37:10.999Z,97.20
2023-05-12T04:38:10.969Z,96.59
2023-05-12T04:39:11.977Z,96.84
2023-05-12T04:40:10.996Z,96.54
2023-05-12T04:41:10.949Z,96.23
2023-05-12T04:42:10.929Z,96.64
2023-05-12T04:43:59.876Z,96.44
2023-05-12T04:44:12.912Z,96.44
2023-05-12T04:45:10.921Z,96.54
2023-05-12T04:46:10.905Z,96.44
2023-05-12T04:47:10.880Z,96.44
2023-05-12T04:48:10.869Z,96.34
2023-05-12T04:49:10.851Z,96.30
2023-05-12T04:50:10.879Z,96.54
2023-05-12T04:51:10.836Z,96.84
2023-05-12T04:52:10.817Z,95.98
2023-05-12T04:53:11.501Z,96.03
2023-05-12T04:54:11.806Z,95.89
2023-05-12T04:55:10.812Z,95.78
2023-05-12T04:56:10.783Z,95.58
2023-05-12T04:57:10.777Z,95.89
2023-05-12T04:58:10.771Z,95.37
2023-05-12T04:59:10.766Z,95.53
2023-05-12T05:00:10.891Z,95.58
2023-05-12T05:02:57.286Z,94.52
2023-05-12T05:03:55.648Z,95.53
2023-05-12T05:04:55.636Z,94.62
2023-05-12T05:05:55.602Z,94.21
2023-05-12T05:06:55.560Z,94.62
2023-05-12T05:07:55.549Z,94.92
2023-05-12T05:08:55.554Z,95.74
2023-05-12T05:09:55.535Z,96.39
2023-05-12T05:10:55.512Z,96.80
2023-05-12T05:11:55.509Z,96.60
2023-05-12T05:12:55.500Z,97.62
2023-05-12T05:13:55.500Z,97.41
2023-05-12T05:14:55.471Z,97.82
2023-05-12T05:15:55.579Z,96.50
2023-05-12T05:16:55.464Z,96.39
2023-05-12T05:17:55.500Z,96.19
2023-05-12T05:18:55.498Z,96.45
2023-05-12T05:19:59.022Z,96.30
2023-05-12T05:20:58.374Z,95.84
2023-05-12T05:21:55.413Z,95.94
2023-05-12T05:22:55.412Z,95.74
2023-05-12T05:23:55.402Z,95.03
2023-05-12T05:24:55.372Z,95.74
2023-05-12T05:25:55.405Z,95.74
2023-05-12T05:26:55.353Z,95.03
2023-05-12T05:27:55.352Z,95.94
2023-05-12T05:28:55.343Z,96.39
2023-05-12T05:29:55.320Z,96.39
2023-05-12T05:30:55.360Z,96.44
2023-05-12T05:31:55.458Z,96.64
2023-05-12T05:32:55.324Z,97.66
2023-05-12T05:33:55.347Z,97.31
2023-05-12T05:34:55.268Z,98.07
2023-05-12T05:35:55.258Z,97.72
2023-05-12T05:36:55.311Z,97.82
2023-05-12T05:37:55.259Z,97.82
2023-05-12T05:38:55.308Z,97.82
2023-05-12T05:40:38.598Z,98.02
2023-05-12T05:43:48.189Z,97.47
2023-05-12T05:44:48.156Z,97.78
2023-05-12T05:45:48.133Z,97.37
2023-05-12T05:46:48.188Z,97.47
2023-05-12T05:47:48.259Z,96.35
2023-05-12T05:49:09.100Z,95.74
2023-05-12T05:49:48.095Z,95.84
2023-05-12T05:50:48.092Z,95.90
2023-05-12T05:51:48.081Z,95.43
2023-05-12T05:52:48.218Z,95.39
2023-05-12T05:53:48.048Z,95.39
2023-05-12T05:54:48.046Z,95.14
2023-05-12T05:55:48.043Z,95.65
2023-05-12T05:56:48.100Z,95.65
2023-05-12T05:59:13.979Z,95.34
2023-05-12T06:00:14.005Z,94.79
2023-05-12T06:01:13.972Z,94.89
2023-05-12T06:02:13.991Z,95.40
2023-05-12T06:03:14.031Z,94.04
2023-05-12T06:04:13.974Z,93.93
2023-05-12T06:05:14.404Z,94.04
2023-05-12T06:06:13.921Z,94.20
2023-05-12T06:07:13.912Z,93.99
2023-05-12T06:08:13.992Z,94.09
2023-05-12T06:09:13.902Z,92.67
2023-05-12T06:10:13.885Z,92.26
2023-05-12T06:11:15.307Z,92.67
2023-05-12T06:12:13.863Z,92.26
2023-05-12T06:13:13.850Z,92.77
2023-05-12T06:14:13.849Z,92.61
2023-05-12T06:15:13.836Z,92.82
2023-05-12T06:16:13.846Z,92.51
2023-05-12T06:17:13.829Z,92.21
2023-05-12T06:18:13.794Z,91.60
2023-05-12T06:19:13.821Z,91.90
2023-05-12T06:20:13.777Z,92.61
2023-05-12T06:21:13.781Z,93.02
2023-05-12T06:22:13.745Z,93.13
2023-05-12T06:23:13.740Z,94.15
2023-05-12T06:24:13.875Z,93.29
2023-05-12T06:25:13.717Z,93.55
2023-05-12T06:26:13.784Z,91.77
2023-05-12T06:28:39.659Z,91.51
2023-05-12T06:29:39.690Z,92.12
2023-05-12T06:36:36.163Z,92.79
2023-05-12T06:37:38.158Z,93.03
2023-05-12T06:38:23.839Z,92.22
2023-05-12T06:39:23.576Z,91.20
2023-05-12T06:40:23.635Z,91.35
2023-05-12T06:41:23.540Z,92.02
2023-05-12T06:42:23.560Z,91.71
2023-05-12T06:43:23.516Z,91.82
2023-05-12T06:44:23.464Z,91.41
2023-05-12T06:45:23.637Z,92.63
2023-05-12T06:46:23.570Z,92.28
2023-05-12T06:47:23.483Z,91.56
2023-05-12T06:48:23.501Z,89.64
2023-05-12T06:49:23.835Z,90.75
2023-05-12T06:50:23.491Z,90.66
2023-05-12T06:52:49.363Z,89.70
2023-05-12T06:53:49.349Z,88.48
2023-05-12T06:54:49.333Z,89.80
2023-05-12T06:55:49.329Z,89.39
2023-05-12T06:56:49.315Z,89.39
2023-05-12T06:57:49.311Z,87.37
2023-05-12T06:58:49.291Z,87.67
2023-05-12T06:59:49.283Z,87.73
2023-05-12T07:00:49.282Z,87.83
2023-05-12T07:01:49.334Z,85.84
2023-05-12T07:02:49.307Z,87.73
2023-05-12T07:03:49.593Z,87.22
2023-05-12T07:04:49.242Z,86.35
2023-05-12T07:05:49.277Z,87.87
2023-05-12T07:06:49.226Z,87.37
2023-05-12T07:07:49.228Z,87.37
2023-05-12T07:08:49.186Z,87.87
2023-05-12T07:09:49.184Z,87.77
2023-05-12T07:10:49.186Z,87.63
2023-05-12T07:11:55.996Z,86.82
2023-05-12T07:13:16.988Z,86.51
2023-05-12T07:13:49.140Z,86.15
2023-05-12T07:14:49.140Z,86.55
2023-05-12T07:15:49.147Z,86.71
2023-05-12T07:16:49.097Z,85.94
2023-05-12T07:17:49.131Z,86.45
2023-05-12T07:18:49.148Z,86.71
2023-05-12T07:19:49.089Z,87.83
2023-05-12T07:20:49.089Z,86.51
2023-05-12T07:21:49.074Z,85.64
2023-05-12T07:22:49.048Z,87.83
2023-05-12T07:23:49.052Z,87.73
2023-05-12T07:24:49.085Z,86.82
2023-05-12T07:25:49.015Z,87.22
2023-05-12T07:26:49.006Z,87.38
2023-05-12T07:27:48.987Z,87.22
2023-05-12T07:28:48.993Z,87.69
2023-05-12T07:29:48.970Z,86.47
2023-05-12T07:30:48.957Z,85.25
2023-05-12T07:31:49.074Z,86.07
2023-05-12T07:32:49.007Z,86.07
2023-05-12T07:33:48.934Z,86.27
2023-05-12T07:34:48.933Z,86.07
2023-05-12T07:35:48.901Z,86.37
2023-05-12T07:36:48.914Z,85.36
2023-05-12T07:37:48.883Z,85.25
2023-05-12T07:38:48.899Z,85.46
2023-05-12T07:39:48.887Z,85.36
2023-05-12T07:40:48.850Z,85.36
2023-05-12T07:41:48.843Z,85.05
2023-05-12T07:42:48.827Z,85.05
2023-05-12T07:43:48.842Z,84.91
2023-05-12T07:44:48.834Z,86.53
2023-05-12T07:45:48.795Z,85.01
2023-05-12T07:46:48.883Z,85.82
2023-05-12T07:47:48.889Z,84.91
2023-05-12T07:48:48.791Z,84.91
2023-05-12T07:49:48.763Z,84.50
2023-05-12T07:50:48.756Z,84.20
2023-05-12T07:51:48.745Z,84.16
2023-05-12T07:52:48.769Z,84.30
2023-05-12T07:53:48.733Z,84.47
2023-05-12T07:54:48.710Z,85.21
2023-05-12T07:55:48.707Z,85.01
2023-05-12T07:56:48.689Z,84.20
2023-05-12T07:57:48.691Z,86.22
2023-05-12T07:58:48.693Z,86.08
2023-05-12T07:59:48.648Z,85.68
2023-05-12T08:00:48.639Z,86.69
2023-05-12T08:01:48.781Z,85.88
2023-05-12T08:02:48.815Z,86.15
2023-05-12T08:03:48.754Z,85.94
2023-05-12T08:04:48.614Z,85.44
2023-05-12T08:05:48.614Z,86.25
2023-05-12T08:06:48.632Z,85.94
2023-05-12T08:07:48.584Z,85.13
2023-05-12T08:08:48.603Z,85.50
2023-05-12T08:09:48.576Z,85.80
2023-05-12T08:10:48.535Z,85.86
2023-05-12T08:11:50.837Z,85.76
2023-05-12T08:12:48.509Z,84.69
2023-05-12T08:13:48.534Z,84.69
2023-05-12T08:14:48.510Z,84.14
2023-05-12T08:15:48.504Z,84.75
2023-05-12T08:16:48.585Z,84.75
2023-05-12T08:17:49.061Z,83.64
2023-05-12T08:18:48.537Z,84.89
2023-05-12T08:19:48.992Z,83.98
2023-05-12T08:20:48.475Z,84.48
2023-05-12T08:21:48.413Z,85.60
2023-05-12T08:22:48.419Z,83.98
2023-05-12T08:23:48.404Z,84.28
2023-05-12T08:24:48.609Z,84.08
2023-05-12T08:25:48.439Z,84.99
2023-05-12T08:26:48.360Z,85.10
2023-05-12T08:27:48.365Z,84.93
2023-05-12T08:28:48.393Z,84.42
2023-05-12T08:30:06.627Z,84.19
2023-05-12T08:30:50.091Z,83.88
2023-05-12T08:31:48.320Z,85.05
2023-05-12T08:32:48.398Z,85.96
2023-05-12T08:33:51.844Z,86.53
2023-05-12T08:34:49.286Z,86.08
2023-05-12T08:35:48.280Z,83.86
2023-05-12T08:36:48.276Z,85.78
2023-05-12T08:37:48.265Z,83.96
2023-05-12T08:38:48.259Z,83.92
2023-05-12T08:39:48.263Z,81.64
2023-05-12T08:40:48.233Z,81.54
2023-05-12T08:41:48.243Z,81.48
2023-05-12T08:42:48.257Z,83.96
2023-05-12T08:43:48.231Z,81.70
2023-05-12T08:44:48.459Z,82.01
2023-05-12T08:45:48.168Z,81.40
2023-05-12T08:46:48.247Z,80.79
2023-05-12T08:47:48.204Z,80.76
2023-05-12T08:48:48.148Z,80.65
2023-05-12T08:49:49.855Z,79.64
2023-05-12T08:50:48.112Z,80.96
2023-05-12T08:51:56.477Z,79.81
2023-05-12T08:52:49.096Z,79.91
2023-05-12T08:53:48.110Z,79.81
2023-05-12T08:54:55.444Z,78.96
2023-05-12T08:57:08.218Z,78.76
2023-05-12T08:57:48.054Z,79.57
2023-05-12T08:58:48.031Z,78.46
2023-05-12T08:59:48.026Z,78.32
2023-05-12T09:00:48.323Z,78.89
2023-05-12T09:01:48.040Z,80.20
2023-05-12T09:03:12.225Z,78.69
2023-05-12T09:03:49.029Z,76.97
2023-05-12T09:04:48.079Z,78.49
2023-05-12T09:05:47.972Z,77.44
2023-05-12T09:06:47.942Z,75.96
2023-05-12T09:07:48.060Z,76.47
2023-05-12T09:08:47.944Z,78.99
2023-05-12T09:09:47.922Z,78.75
2023-05-12T09:10:47.926Z,80.93
2023-05-12T09:11:47.905Z,75.90
2023-05-12T09:12:47.920Z,76.50
2023-05-12T09:13:47.877Z,78.61
2023-05-12T09:14:47.900Z,76.46
2023-05-12T09:15:47.895Z,78.47
2023-05-12T09:16:47.960Z,73.24
2023-05-12T09:17:47.890Z,76.73
2023-05-12T09:18:47.827Z,72.00
2023-05-12T09:19:47.812Z,72.87
2023-05-12T09:20:47.811Z,73.11
2023-05-12T09:21:47.798Z,78.00
2023-05-12T09:22:47.783Z,77.56
2023-05-12T09:23:47.770Z,71.23
2023-05-12T09:24:47.764Z,71.90
2023-05-12T09:25:47.752Z,70.16
2023-05-12T09:26:47.784Z,69.69
2023-05-12T09:27:47.728Z,72.97
2023-05-12T09:28:47.712Z,68.88
2023-05-12T09:29:58.111Z,68.88
2023-05-12T09:30:48.704Z,69.79
2023-05-12T09:31:47.769Z,72.37
2023-05-12T09:32:47.738Z,70.32
2023-05-12T09:33:47.664Z,71.00
2023-05-12T09:34:47.657Z,68.55
2023-05-12T09:35:47.661Z,65.95
2023-05-12T09:36:47.634Z,66.85
2023-05-12T09:37:47.628Z,66.01
2023-05-12T09:38:47.621Z,68.42
2023-05-12T09:39:47.624Z,68.02
2023-05-12T09:40:47.600Z,68.32
2023-05-12T09:41:47.593Z,66.41
2023-05-12T09:42:47.585Z,67.38
2023-05-12T09:43:47.565Z,66.88
2023-05-12T09:44:47.592Z,69.49
2023-05-12T09:45:47.722Z,70.39
2023-05-12T09:46:48.673Z,70.76
2023-05-12T09:47:48.672Z,68.12
2023-05-12T09:48:48.686Z,65.41
2023-05-12T09:49:48.646Z,66.78
2023-05-12T09:50:48.824Z,65.81
2023-05-12T09:51:48.602Z,63.98
2023-05-12T09:52:48.602Z,64.54
2023-05-12T09:53:49.166Z,63.11
2023-05-12T09:55:03.554Z,63.39
2023-05-12T09:55:48.569Z,62.18
2023-05-12T09:56:49.575Z,61.35
2023-05-12T09:57:49.484Z,61.15
2023-05-12T09:58:48.581Z,59.38
2023-05-12T10:00:14.031Z,62.71
2023-05-12T10:01:12.870Z,61.71
2023-05-12T10:01:50.593Z,62.88
2023-05-12T10:02:49.919Z,62.18
2023-05-12T10:03:48.522Z,62.01
2023-05-12T10:04:48.734Z,62.24
2023-05-12T10:05:48.568Z,62.34
2023-05-12T10:06:48.512Z,61.54
2023-05-12T10:07:48.543Z,63.42
2023-05-12T10:08:48.505Z,62.21
2023-05-12T10:09:48.484Z,61.41
2023-05-12T10:10:48.471Z,59.78
2023-05-12T10:11:51.291Z,61.78
2023-05-12T10:12:48.484Z,62.55
2023-05-12T10:13:48.430Z,59.72
2023-05-12T10:14:48.420Z,60.49
2023-05-12T10:15:48.413Z,61.49
2023-05-12T10:16:48.531Z,60.89
2023-05-12T10:17:48.428Z,62.29
2023-05-12T10:18:48.535Z,62.19
2023-05-12T10:19:48.391Z,62.59
2023-05-12T10:20:48.383Z,62.46
2023-05-12T10:21:48.366Z,63.19
2023-05-12T10:22:48.347Z,59.94
2023-05-12T10:23:48.356Z,59.53
2023-05-12T10:24:48.363Z,60.77
2023-05-12T10:25:48.362Z,58.97
2023-05-12T10:26:48.355Z,60.62
2023-05-12T10:27:48.424Z,59.42
2023-05-12T10:28:48.326Z,61.52
2023-05-12T10:29:48.319Z,64.75
2023-05-12T10:30:48.283Z,63.22
2023-05-12T10:31:48.316Z,61.49
2023-05-12T10:32:48.363Z,61.40
2023-05-12T10:33:48.258Z,61.09
2023-05-12T10:34:48.265Z,61.83
2023-05-12T10:35:49.638Z,61.57
2023-05-12T10:36:49.285Z,56.26
2023-05-12T10:37:48.257Z,56.16
2023-05-12T10:38:48.265Z,55.86
2023-05-12T10:39:48.168Z,55.79
2023-05-12T10:40:48.186Z,58.31
2023-05-12T10:41:48.178Z,58.41
2023-05-12T10:42:48.142Z,59.18
2023-05-12T10:43:48.115Z,56.76
2023-05-12T10:44:48.133Z,57.03
2023-05-12T10:45:48.117Z,59.30
2023-05-12T10:46:48.162Z,57.47
2023-05-12T10:47:48.117Z,53.94
2023-05-12T10:48:48.085Z,55.62
2023-05-12T10:49:48.063Z,58.41
2023-05-12T10:50:48.081Z,59.38
2023-05-12T10:51:48.052Z,56.38
2023-05-12T10:52:48.199Z,55.66
2023-05-12T10:53:51.288Z,55.63
2023-05-12T10:54:50.075Z,57.37
2023-05-12T10:55:48.341Z,53.36
2023-05-12T10:56:48.446Z,53.64
2023-05-12T10:57:48.348Z,52.34
2023-05-12T10:58:48.382Z,53.69
2023-05-12T10:59:48.255Z,56.33
2023-05-12T11:00:48.700Z,56.56
2023-05-12T11:01:49.449Z,56.96
2023-05-12T11:02:48.766Z,56.13
2023-05-12T11:03:50.026Z,55.11
2023-05-12T11:04:48.209Z,55.91
2023-05-12T11:05:48.934Z,52.32
2023-05-12T11:06:48.771Z,55.66
2023-05-12T11:07:47.996Z,58.51
2023-05-12T11:08:48.406Z,57.81
2023-05-12T11:09:57.448Z,55.47
2023-05-12T11:10:50.888Z,57.79
2023-05-12T11:11:47.939Z,59.97
2023-05-12T11:12:47.842Z,56.99
2023-05-12T11:13:47.878Z,56.02
2023-05-12T11:14:50.843Z,54.72
2023-05-12T11:15:47.882Z,56.02
2023-05-12T11:16:47.992Z,56.74
2023-05-12T11:17:47.902Z,55.94
2023-05-12T11:18:47.878Z,57.35
2023-05-12T11:19:47.832Z,58.15
2023-05-12T11:20:48.838Z,56.95
2023-05-12T11:21:47.845Z,56.05
2023-05-12T11:22:49.249Z,58.25
2023-05-12T11:23:47.801Z,57.55
2023-05-12T11:24:47.792Z,59.85
2023-05-12T11:25:47.818Z,59.35
2023-05-12T11:26:47.775Z,58.30
2023-05-12T11:27:47.795Z,59.31
2023-05-12T11:28:47.763Z,57.93
2023-05-12T11:29:47.675Z,58.16
2023-05-12T11:30:47.711Z,59.79
2023-05-12T11:31:47.809Z,62.10
2023-05-12T11:32:47.741Z,62.20
2023-05-12T11:33:47.672Z,62.50
2023-05-12T11:34:47.695Z,63.20
2023-05-12T11:35:47.675Z,60.80
2023-05-12T11:36:47.674Z,60.86
2023-05-12T11:37:47.674Z,64.15
2023-05-12T11:38:47.648Z,59.41
2023-05-12T11:39:47.642Z,60.68
2023-05-12T11:40:47.656Z,58.52
2023-05-12T11:41:47.657Z,56.32
2023-05-12T11:42:47.651Z,56.52
2023-05-12T11:43:47.585Z,58.72
2023-05-12T11:44:47.590Z,56.52
2023-05-12T11:45:47.631Z,59.12
2023-05-12T11:46:47.571Z,55.02
2023-05-12T11:47:47.569Z,52.55
2023-05-12T11:48:47.553Z,55.44
2023-05-12T11:49:47.547Z,56.85
2023-05-12T11:50:47.506Z,56.17
2023-05-12T11:51:47.681Z,55.87
2023-05-12T11:52:47.535Z,56.77
2023-05-12T11:53:47.517Z,56.67
2023-05-12T11:54:47.518Z,57.68
2023-05-12T11:55:47.509Z,57.57
2023-05-12T11:56:47.474Z,57.87
2023-05-12T11:57:47.448Z,58.07
2023-05-12T11:58:47.428Z,56.67
2023-05-12T11:59:47.420Z,55.82
2023-05-12T12:00:47.460Z,54.79
2023-05-12T12:01:47.438Z,54.77
2023-05-12T12:02:47.430Z,52.74
2023-05-12T12:03:47.443Z,51.42
2023-05-12T12:04:47.395Z,51.84
2023-05-12T12:05:47.362Z,52.67
2023-05-12T12:06:47.372Z,53.19
2023-05-12T12:07:47.333Z,52.80
2023-05-12T12:08:47.332Z,54.99
2023-05-12T12:09:47.335Z,54.12
2023-05-12T12:10:47.352Z,54.22
2023-05-12T12:11:47.311Z,54.52
2023-05-12T12:12:47.302Z,58.72
2023-05-12T12:13:47.301Z,60.98
2023-05-12T12:14:47.330Z,60.41
2023-05-12T12:15:47.369Z,62.04
2023-05-12T12:16:47.312Z,64.75
2023-05-12T12:17:47.292Z,62.71
2023-05-12T12:18:47.284Z,59.61
2023-05-12T12:19:47.193Z,60.11
2023-05-12T12:20:47.229Z,59.78
2023-05-12T12:21:47.213Z,59.45
2023-05-12T12:22:47.215Z,57.55
2023-05-12T12:23:51.203Z,58.68
2023-05-12T12:24:48.211Z,60.18
2023-05-12T12:25:47.169Z,58.00
2023-05-12T12:26:47.177Z,58.83
2023-05-12T12:27:47.185Z,58.73
2023-05-12T12:28:47.213Z,59.74
2023-05-12T12:29:47.151Z,61.31
2023-05-12T12:30:47.164Z,62.74
2023-05-12T12:31:47.206Z,61.64
2023-05-12T12:32:47.133Z,63.28
2023-05-12T12:33:47.132Z,65.18
2023-05-12T12:34:47.135Z,62.47
2023-05-12T12:35:47.063Z,62.40
2023-05-12T12:36:47.089Z,62.87
2023-05-12T12:37:47.050Z,66.48
2023-05-12T12:38:47.031Z,66.08
2023-05-12T12:39:46.975Z,66.45
2023-05-12T12:40:46.979Z,64.61
2023-05-12T12:41:46.952Z,66.61
2023-05-12T12:42:46.984Z,66.64
2023-05-12T12:43:46.965Z,65.17
2023-05-12T12:44:46.926Z,67.11
2023-05-12T12:45:46.910Z,67.94
2023-05-12T12:46:46.936Z,67.65
2023-05-12T12:47:46.940Z,68.48
2023-05-12T12:48:46.898Z,68.85
2023-05-12T12:49:46.901Z,67.55
2023-05-12T12:50:46.878Z,65.97
2023-05-12T12:51:47.365Z,66.64
2023-05-12T12:52:46.877Z,67.85
2023-05-12T12:53:46.884Z,68.45
2023-05-12T12:54:46.836Z,69.56
2023-05-12T12:55:46.826Z,68.25
2023-05-12T12:56:46.890Z,68.38
2023-05-12T12:57:46.845Z,67.71
2023-05-12T12:58:46.853Z,67.54
2023-05-12T12:59:46.808Z,68.24
2023-05-12T13:00:46.836Z,67.84
2023-05-12T13:01:46.878Z,68.55
2023-05-12T13:02:46.845Z,67.74
2023-05-12T13:03:46.824Z,67.51
2023-05-12T13:04:46.723Z,67.68
2023-05-12T13:05:46.798Z,66.27
2023-05-12T13:06:46.784Z,67.07
2023-05-12T13:07:46.764Z,68.78